Time;durP1;ratioP1;P1;durP2;ratioP2;P2;SDS_P1;SDS_P2;PMS_P1;PMS_P2;Temp;Humidity;BMP_temperature;BMP_pressure;BME280_temperature;BME280_humidity;BME280_pressure;Samples;Min_cycle;Max_cycle;Signal;HPM_P1;HPM_P2
2024/02/18 00:01:46;;;;;;;;;63.33;49.00;;;;;6.03;100.00;100874.59;6270819;20;2882635;-39
2024/02/18 00:04:16;;;;;;;;;66.00;49.67;;;;;5.78;100.00;100868.03;6302623;20;2882769;-39
2024/02/18 00:06:46;;;;;;;;;67.33;48.33;;;;;5.91;100.00;100869.50;6305470;20;3639911;-41
2024/02/18 00:09:17;;;;;;;;;62.33;46.33;;;;;6.03;100.00;100868.34;6304940;20;3637815;-40
2024/02/18 00:11:46;;;;;;;;;18.00;9.33;;;;;6.02;100.00;100875.50;6307534;20;2800396;-39
2024/02/18 00:14:16;;;;;;;;;70.33;52.67;;;;;6.12;100.00;100876.16;6301794;20;3643196;-40
2024/02/18 00:16:46;;;;;;;;;79.00;57.67;;;;;5.93;100.00;100876.59;6305658;20;3639916;-43
2024/02/18 00:19:16;;;;;;;;;71.33;54.00;;;;;5.94;100.00;100878.34;6269585;20;3644053;-39
2024/02/18 00:21:46;;;;;;;;;66.00;49.33;;;;;5.75;100.00;100873.44;6304902;20;3620104;-41
2024/02/18 00:24:15;;;;;;;;;13.50;13.50;;;;;5.78;100.00;100882.25;6302659;20;2794111;-39
2024/02/18 00:26:50;;;;;;;;;71.33;54.33;;;;;5.87;100.00;100879.38;6275205;20;3645088;-42
2024/02/18 00:29:27;;;;;;;;;77.67;58.67;;;;;5.76;100.00;100878.72;6303810;20;3629423;-40
2024/02/18 00:31:57;;;;;;;;;64.33;52.00;;;;;5.75;100.00;100874.31;6305640;20;2852620;-40
2024/02/18 00:34:27;;;;;;;;;63.50;49.00;;;;;5.79;100.00;100878.66;6302842;20;2874316;-41
2024/02/18 00:36:57;;;;;;;;;66.67;48.33;;;;;5.89;100.00;100880.19;6273951;20;3634720;-42
2024/02/18 00:39:26;;;;;;;;;65.00;50.00;;;;;5.94;100.00;100878.34;6303422;20;2868104;-40
2024/02/18 00:41:55;;;;;;;;;69.33;53.33;;;;;5.92;100.00;100877.47;6271470;20;3643005;-41
2024/02/18 00:44:25;;;;;;;;;61.67;49.67;;;;;5.84;100.00;100865.22;6302667;20;2876445;-40
2024/02/18 00:46:54;;;;;;;;;63.00;50.33;;;;;5.87;100.00;100863.38;6303738;20;3610750;-39
2024/02/18 00:49:33;;;;;;;;;54.50;43.50;;;;;5.88;100.00;100866.91;6304815;20;2869091;-40
2024/02/18 00:52:04;;;;;;;;;58.00;47.00;;;;;5.74;100.00;100859.25;6270226;20;2868315;-40
2024/02/18 00:54:34;;;;;;;;;62.33;49.67;;;;;5.77;100.00;100864.50;6299476;20;2873441;-39
2024/02/18 00:57:04;;;;;;;;;62.00;45.00;;;;;5.89;100.00;100866.88;6304194;20;3638850;-39
2024/02/18 00:59:33;;;;;;;;;66.33;49.00;;;;;5.77;100.00;100874.28;6302003;20;3628429;-40
2024/02/18 01:02:03;;;;;;;;;62.33;48.33;;;;;5.87;100.00;100871.38;6300399;20;2874359;-40
2024/02/18 01:04:32;;;;;;;;;66.33;50.33;;;;;5.68;100.00;100868.22;6302427;20;2886847;-40
2024/02/18 01:07:02;;;;;;;;;62.00;48.33;;;;;5.79;100.00;100873.31;6307460;20;3618079;-39
2024/02/18 01:09:32;;;;;;;;;60.67;43.33;;;;;5.88;100.00;100875.78;6308907;20;3631528;-40
2024/02/18 01:12:02;;;;;;;;;52.50;44.00;;;;;5.91;100.00;100873.03;6309316;20;2851315;-40
2024/02/18 01:14:31;;;;;;;;;59.00;46.50;;;;;5.82;100.00;100881.28;6277651;20;2864854;-40
2024/02/18 01:17:02;;;;;;;;;62.67;49.67;;;;;5.78;100.00;100881.38;6276799;20;3627365;-40
2024/02/18 01:19:31;;;;;;;;;56.50;46.00;;;;;5.80;100.00;100877.75;6307878;20;2861742;-39
2024/02/18 01:22:00;;;;;;;;;59.33;44.00;;;;;5.92;100.00;100885.47;6275675;20;3621100;-40
2024/02/18 01:24:29;;;;;;;;;55.50;42.50;;;;;5.88;100.00;100885.56;6305129;20;2861764;-39
2024/02/18 01:26:59;;;;;;;;;54.33;39.67;;;;;5.94;100.00;100883.66;6276754;20;3623260;-40
2024/02/18 01:29:27;;;;;;;;;57.00;44.50;;;;;6.11;100.00;100879.75;6305430;20;2868013;-40
2024/02/18 01:31:57;;;;;;;;;63.00;47.67;;;;;5.99;100.00;100885.38;6276622;20;2878426;-40
2024/02/18 01:34:26;;;;;;;;;54.00;43.50;;;;;5.97;100.00;100881.84;6307439;20;2853465;-40
2024/02/18 01:36:54;;;;;;;;;56.00;43.00;;;;;6.03;100.00;100893.25;6277184;20;2861814;-40
2024/02/18 01:39:25;;;;;;;;;54.00;41.67;;;;;6.20;100.00;100892.84;6276490;20;2868013;-42
2024/02/18 01:41:54;;;;;;;;;55.50;43.50;;;;;6.06;100.00;100897.66;6306764;20;2849495;-43
2024/02/18 01:44:22;;;;;;;;;52.00;44.00;;;;;6.26;100.00;100899.81;6273349;20;2499260;-41
2024/02/18 01:46:51;;;;;;;;;53.50;42.00;;;;;6.15;100.00;100892.94;6276219;20;2858747;-41
2024/02/18 01:49:21;;;;;;;;;49.00;42.50;;;;;6.07;100.00;100900.25;6275162;20;2852377;-40
2024/02/18 01:51:50;;;;;;;;;44.50;36.50;;;;;6.04;100.00;100899.47;6275309;20;2500284;-42
2024/02/18 01:54:21;;;;;;;;;48.33;41.33;;;;;5.71;100.00;100893.94;6274022;20;2862933;-41
2024/02/18 01:56:49;;;;;;;;;51.00;42.00;;;;;5.49;100.00;100899.72;6307705;20;2849226;-40
2024/02/18 01:59:19;;;;;;;;;58.50;44.00;;;;;5.44;100.00;100895.41;6276753;20;2871126;-43
2024/02/18 02:01:47;;;;;;;;;53.50;41.50;;;;;5.51;100.00;100899.72;6273335;20;2873300;-40
2024/02/18 02:04:17;;;;;;;;;50.00;42.50;;;;;5.35;100.00;100900.94;6274334;20;2868023;-40
2024/02/18 02:06:46;;;;;;;;;54.00;43.00;;;;;4.96;100.00;100901.69;6274874;20;2861842;-41
2024/02/18 02:09:16;;;;;;;;;57.67;41.00;;;;;5.26;100.00;100896.66;6272202;20;2864997;-40
2024/02/18 02:11:45;;;;;;;;;57.00;44.00;;;;;5.17;100.00;100897.75;6309973;20;2808683;-40
2024/02/18 02:14:16;;;;;;;;;58.50;42.50;;;;;5.05;100.00;100895.31;6270780;20;2872466;-40
2024/02/18 02:16:44;;;;;;;;;61.00;46.50;;;;;5.38;100.00;100893.75;6276787;20;2865943;-40
2024/02/18 02:19:13;;;;;;;;;57.00;45.50;;;;;5.27;100.00;100898.44;6276440;20;2863829;-43
2024/02/18 02:21:41;;;;;;;;;58.00;44.00;;;;;5.36;100.00;100900.03;6271869;20;2489899;-40
2024/02/18 02:24:10;;;;;;;;;56.00;47.00;;;;;5.56;100.00;100896.97;6271479;20;2862947;-40
2024/02/18 02:26:44;;;;;;;;;55.00;42.50;;;;;5.43;100.00;100897.22;6272461;20;2843017;-40
2024/02/18 02:29:16;;;;;;;;;51.50;42.50;;;;;5.67;100.00;100892.28;6274008;20;2851356;-41
2024/02/18 02:31:45;;;;;;;;;55.00;44.50;;;;;5.23;100.00;100904.72;6276556;20;2860824;-41
2024/02/18 02:34:15;;;;;;;;;58.00;43.33;;;;;5.23;100.00;100902.06;6277641;20;2862940;-43
2024/02/18 02:36:44;;;;;;;;;61.00;47.00;;;;;5.35;100.00;100911.59;6306176;20;2868510;-41
2024/02/18 02:39:13;;;;;;;;;59.50;48.00;;;;;5.17;100.00;100903.06;6277247;20;2850332;-40
2024/02/18 02:41:42;;;;;;;;;60.00;45.50;;;;;5.07;100.00;100909.47;6277004;20;2856532;-40
2024/02/18 02:44:11;;;;;;;;;57.00;46.00;;;;;5.14;100.00;100904.91;6276443;20;2856654;-40
2024/02/18 02:46:41;;;;;;;;;59.00;44.00;;;;;5.18;100.00;100918.13;6277402;20;2869057;-40
2024/02/18 02:49:10;;;;;;;;;57.00;46.50;;;;;5.48;100.00;100910.44;6307928;20;2853433;-40
2024/02/18 02:51:41;;;;;;;;;58.00;43.50;;;;;5.55;100.00;100911.16;6277914;20;2882661;-39
2024/02/18 02:54:10;;;;;;;;;56.50;45.00;;;;;5.67;100.00;100911.78;6306227;20;2852365;-39
2024/02/18 02:56:40;;;;;;;;;56.33;42.67;;;;;5.83;100.00;100906.13;6275507;20;2866999;-39
2024/02/18 02:59:09;;;;;;;;;54.00;42.50;;;;;5.70;100.00;100906.38;6305685;20;2850276;-40
2024/02/18 03:01:37;;;;;;;;;59.00;47.00;;;;;5.81;100.00;100908.81;6274442;20;2865917;-40
2024/02/18 03:04:06;;;;;;;;;51.00;42.50;;;;;5.88;100.00;100909.56;6275389;20;2854478;-40
2024/02/18 03:06:36;;;;;;;;;47.00;40.00;;;;;6.10;100.00;100916.19;6276606;20;2850432;-39
2024/02/18 03:09:05;;;;;;;;;54.67;42.00;;;;;6.18;100.00;100916.00;6277278;20;2864901;-41
2024/02/18 03:11:34;;;;;;;;;52.50;42.00;;;;;6.09;100.00;100921.56;6307460;20;2859807;-39
2024/02/18 03:14:03;;;;;;;;;50.00;40.00;;;;;6.13;100.00;100920.56;6275042;20;2852383;-40
2024/02/18 03:16:32;;;;;;;;;47.33;40.00;;;;;6.04;100.00;100919.00;6276228;20;2865914;-40
2024/02/18 03:19:02;;;;;;;;;54.00;42.67;;;;;5.93;100.00;100918.34;6304507;20;2855588;-41
2024/02/18 03:21:31;;;;;;;;;54.00;40.67;;;;;6.03;100.00;100919.00;6304158;20;3616926;-41
2024/02/18 03:24:00;;;;;;;;;50.67;42.00;;;;;6.08;100.00;100925.13;6308197;20;3595138;-42
2024/02/18 03:26:29;;;;;;;;;52.00;42.00;;;;;5.93;100.00;100923.66;6307187;20;2864920;-40
2024/02/18 03:28:58;;;;;;;;;54.50;43.50;;;;;5.53;100.00;100929.88;6272111;20;2856654;-42
2024/02/18 03:31:29;;;;;;;;;50.00;43.67;;;;;5.54;100.00;100938.72;6273481;20;2853465;-41
2024/02/18 03:33:59;;;;;;;;;48.67;39.33;;;;;5.61;100.00;100938.56;6306141;20;2875506;-41
2024/02/18 03:36:30;;;;;;;;;45.33;37.67;;;;;5.56;100.00;100939.59;6306880;20;2864854;-40
2024/02/18 03:39:00;;;;;;;;;57.33;43.33;;;;;5.43;100.00;100939.81;6307313;20;2858702;-42
2024/02/18 03:41:30;;;;;;;;;54.00;42.00;;;;;5.37;100.00;100941.72;6304544;20;2867058;-40
2024/02/18 03:43:58;;;;;;;;;48.50;40.00;;;;;5.41;100.00;100940.75;6305277;20;2859736;-40
2024/02/18 03:46:27;;;;;;;;;46.50;38.50;;;;;5.29;100.00;100947.19;6275419;20;2855566;-41
2024/02/18 03:48:57;;;;;;;;;48.00;40.00;;;;;5.30;100.00;100954.28;6273789;20;2878442;-41
2024/02/18 03:51:26;;;;;;;;;58.00;43.00;;;;;5.30;100.00;100943.63;6304790;20;3620162;-40
2024/02/18 03:53:56;;;;;;;;;50.67;42.33;;;;;5.53;100.00;100948.50;6302963;20;2858699;-40
2024/02/18 03:56:25;;;;;;;;;56.00;43.00;;;;;5.12;100.00;100944.00;6305178;20;2873411;-43
2024/02/18 03:58:55;;;;;;;;;50.00;41.33;;;;;5.46;100.00;100954.88;6306148;20;2857032;-41
2024/02/18 04:01:24;;;;;;;;;57.50;45.00;;;;;5.07;100.00;100947.59;6303710;20;2865941;-43
2024/02/18 04:03:53;;;;;;;;;68.67;53.67;;;;;5.17;100.00;100947.44;6273958;20;3634650;-47
2024/02/18 04:06:23;;;;;;;;;68.33;54.00;;;;;5.16;100.00;100958.97;6306083;20;3631490;-44
2024/02/18 04:08:53;;;;;;;;;64.33;54.33;;;;;4.95;100.00;100952.28;6306101;20;2877635;-42
2024/02/18 04:11:22;;;;;;;;;56.00;46.50;;;;;5.09;100.00;100954.72;6305755;20;2852462;-43
2024/02/18 04:13:51;;;;;;;;;65.00;50.00;;;;;4.95;100.00;100950.50;6273711;20;2862817;-45
2024/02/18 04:16:21;;;;;;;;;63.67;44.67;;;;;4.98;100.00;100955.78;6305099;20;3626300;-43
2024/02/18 04:18:53;;;;;;;;;68.67;55.00;;;;;4.89;100.00;100963.03;6303262;20;2874417;-46
2024/02/18 04:21:24;;;;;;;;;129.50;111.50;;;;;4.55;100.00;100953.84;6305388;20;4479527;-43
2024/02/18 04:23:53;;;;;;;;;103.00;86.67;;;;;4.65;100.00;100946.59;6272827;20;3692005;-40
2024/02/18 04:26:23;;;;;;;;;85.33;63.67;;;;;5.06;100.00;100953.84;6273265;20;3650365;-41
2024/02/18 04:28:53;;;;;;;;;87.33;70.67;;;;;4.62;100.00;100944.88;6304440;20;3643034;-42
2024/02/18 04:31:22;;;;;;;;;76.33;60.00;;;;;4.67;100.00;100957.22;6303609;20;2882702;-41
2024/02/18 04:33:52;;;;;;;;;67.00;53.33;;;;;5.14;100.00;100952.84;6303943;20;3617964;-41
2024/02/18 04:36:22;;;;;;;;;73.33;56.00;;;;;4.76;100.00;100946.41;6299343;20;2883847;-40
2024/02/18 04:38:50;;;;;;;;;68.00;56.00;;;;;4.55;100.00;100951.19;6301690;20;2873189;-41
2024/02/18 04:41:21;;;;;;;;;61.00;48.33;;;;;4.27;100.00;100941.91;6273505;20;2867973;-41
2024/02/18 04:43:50;;;;;;;;;67.33;52.00;;;;;3.58;100.00;100940.22;6302400;20;3623173;-40
2024/02/18 04:46:20;;;;;;;;;71.00;52.33;;;;;3.49;100.00;100946.53;6301835;20;2879496;-40
2024/02/18 04:48:51;;;;;;;;;67.00;54.00;;;;;3.97;100.00;100941.44;6304923;20;3628586;-40
2024/02/18 04:51:22;;;;;;;;;84.67;65.67;;;;;3.70;100.00;100946.25;6302767;20;3625274;-40
2024/02/18 04:53:51;;;;;;;;;67.33;54.00;;;;;3.58;100.00;100949.06;6302968;20;2882712;-41
2024/02/18 04:56:21;;;;;;;;;73.00;55.33;;;;;3.64;100.00;100951.66;6303597;20;3634004;-41
2024/02/18 04:58:51;;;;;;;;;77.00;60.00;;;;;3.68;100.00;100948.03;6303521;20;2886811;-40
2024/02/18 05:01:20;;;;;;;;;71.33;55.67;;;;;3.60;100.00;100955.22;6302295;20;3619049;-40
2024/02/18 05:03:50;;;;;;;;;74.00;55.33;;;;;4.07;100.00;100951.03;6302933;20;3642981;-40
2024/02/18 05:06:19;;;;;;;;;66.50;52.00;;;;;4.26;100.00;100953.44;6303080;20;2864897;-40
2024/02/18 05:08:48;;;;;;;;;66.67;52.00;;;;;4.27;100.00;100952.56;6272498;20;3623315;-40
2024/02/18 05:11:18;;;;;;;;;61.67;44.33;;;;;4.69;100.00;100955.41;6302971;20;2874356;-40
2024/02/18 05:13:48;;;;;;;;;60.33;47.33;;;;;4.69;100.00;100955.41;6302558;20;2866210;-40
2024/02/18 05:16:17;;;;;;;;;60.67;47.67;;;;;4.76;100.00;100959.72;6303045;20;2869077;-40
2024/02/18 05:18:47;;;;;;;;;59.00;46.00;;;;;4.81;100.00;100955.19;6301552;20;2856576;-40
2024/02/18 05:21:17;;;;;;;;;61.00;44.33;;;;;4.72;100.00;100958.03;6273049;20;2879594;-40
2024/02/18 05:23:47;;;;;;;;;62.33;49.67;;;;;4.77;100.00;100969.47;6302506;20;3615939;-39
2024/02/18 05:26:15;;;;;;;;;55.50;48.50;;;;;4.58;100.00;100963.56;6300813;20;2494163;-40
2024/02/18 05:28:45;;;;;;;;;62.33;49.00;;;;;4.52;100.00;100967.19;6272376;20;2866939;-40
2024/02/18 05:31:25;;;;;;;;;65.00;50.00;;;;;4.40;100.00;100973.59;6302982;20;2873203;-44
2024/02/18 05:33:55;;;;;;;;;62.00;47.67;;;;;4.33;100.00;100973.72;6270036;20;2874230;-39
2024/02/18 05:36:25;;;;;;;;;66.33;50.67;;;;;4.21;100.00;100974.75;6300687;20;2866119;-40
2024/02/18 05:38:54;;;;;;;;;66.00;50.33;;;;;4.21;100.00;100974.75;6304384;20;3626344;-39
2024/02/18 05:41:24;;;;;;;;;66.33;50.00;;;;;4.12;100.00;100973.13;6303916;20;2876493;-40
2024/02/18 05:43:54;;;;;;;;;70.00;52.67;;;;;4.22;100.00;100971.22;6302599;20;3641935;-40
2024/02/18 05:46:24;;;;;;;;;84.33;64.67;;;;;4.18;100.00;100972.16;6300724;20;3646097;-40
2024/02/18 05:48:52;;;;;;;;;86.00;64.00;;;;;4.18;100.00;100974.81;6302161;20;2875349;-40
2024/02/18 05:51:22;;;;;;;;;82.67;61.00;;;;;3.88;100.00;100982.31;6300919;20;3656606;-40
2024/02/18 05:53:51;;;;;;;;;71.33;57.33;;;;;3.96;100.00;100980.44;6272516;20;2881639;-40
2024/02/18 05:56:21;;;;;;;;;67.67;54.00;;;;;4.06;100.00;100981.19;6307235;20;2873179;-40
2024/02/18 05:58:50;;;;;;;;;74.33;55.67;;;;;3.95;100.00;100976.03;6306912;20;3640892;-40
2024/02/18 06:01:20;;;;;;;;;71.00;55.33;;;;;4.22;100.00;100983.63;6306588;20;3633713;-40
2024/02/18 06:03:50;;;;;;;;;78.67;58.00;;;;;4.27;100.00;100979.13;6308562;20;3651434;-40
2024/02/18 06:06:20;;;;;;;;;74.33;58.67;;;;;4.39;100.00;100978.94;6308414;20;2883899;-40
2024/02/18 06:08:49;;;;;;;;;72.00;57.33;;;;;4.54;100.00;100984.00;6306430;20;3621769;-40
2024/02/18 06:11:19;;;;;;;;;68.67;50.33;;;;;4.28;100.00;100987.06;6305935;20;2881668;-40
2024/02/18 06:13:49;;;;;;;;;81.33;61.33;;;;;4.26;100.00;100988.00;6305126;20;3646115;-40
2024/02/18 06:16:19;;;;;;;;;97.67;82.67;;;;;4.49;100.00;100996.50;6308969;20;3669177;-40
2024/02/18 06:18:49;;;;;;;;;94.00;76.33;;;;;4.72;100.00;100997.94;6276157;20;3674259;-40
2024/02/18 06:21:21;;;;;;;;;85.00;65.50;;;;;5.41;100.00;101007.34;6275115;20;3521603;-40
2024/02/18 06:23:55;;;;;;;;;75.00;58.50;;;;;7.91;100.00;101012.00;6304540;20;2877490;-41
2024/02/18 06:26:27;;;;;;;;;66.33;50.00;;;;;8.47;86.63;101020.13;6272981;20;3633730;-41
2024/02/18 06:28:56;;;;;;;;;58.00;47.00;;;;;6.19;100.00;101020.88;6296040;20;2866976;-40
2024/02/18 06:31:24;;;;;;;;;51.50;42.00;;;;;7.29;100.00;101017.31;6274234;20;2852390;-40
2024/02/18 06:33:53;;;;;;;;;52.50;45.00;;;;;10.89;79.10;101028.41;6265332;20;2867016;-39
2024/02/18 06:36:22;;;;;;;;;36.33;32.00;;;;;10.93;70.83;101033.59;6277836;20;3614893;-40
2024/02/18 06:38:51;;;;;;;;;50.00;40.00;;;;;9.21;76.58;101026.63;6273632;20;2848443;-42
2024/02/18 06:41:20;;;;;;;;;58.00;44.00;;;;;6.20;97.32;101031.50;6275605;20;2863886;-41
2024/02/18 06:43:50;;;;;;;;;56.00;45.00;;;;;5.62;100.00;101024.69;6304956;20;2869985;-40
2024/02/18 06:46:20;;;;;;;;;63.67;48.00;;;;;5.77;100.00;101019.06;6305113;20;2878494;-40
2024/02/18 06:48:51;;;;;;;;;70.33;53.33;;;;;7.25;100.00;101022.75;6304449;20;3631557;-40
2024/02/18 06:51:21;;;;;;;;;65.00;51.33;;;;;8.01;95.18;101023.34;6305283;20;3633613;-40
2024/02/18 06:53:52;;;;;;;;;62.67;50.67;;;;;8.39;90.08;101030.22;6305211;20;2869128;-43
2024/02/18 06:56:22;;;;;;;;;63.00;47.00;;;;;8.07;91.80;101024.00;6303750;20;3637798;-43
2024/02/18 06:58:53;;;;;;;;;52.00;44.67;;;;;7.54;93.96;101025.56;6307341;20;2853392;-41
2024/02/18 07:01:23;;;;;;;;;43.67;36.00;;;;;6.50;96.02;101032.63;6304936;20;3613899;-41
2024/02/18 07:03:53;;;;;;;;;49.33;41.00;;;;;5.78;99.78;101030.59;6267847;20;2853561;-43
2024/02/18 07:06:21;;;;;;;;;42.33;36.00;;;;;4.69;100.00;101024.59;6306499;20;3557553;-43
2024/02/18 07:08:50;;;;;;;;;45.33;36.33;;;;;4.87;100.00;101032.28;6310435;20;3590975;-43
2024/02/18 07:11:21;;;;;;;;;47.00;37.50;;;;;5.16;100.00;101030.88;6273267;20;2849402;-41
2024/02/18 07:13:50;;;;;;;;;55.00;43.50;;;;;6.88;100.00;101036.16;6274361;20;2871144;-42
2024/02/18 07:16:21;;;;;;;;;61.67;49.00;;;;;6.88;99.28;101037.97;6275669;20;3616965;-42
2024/02/18 07:18:50;;;;;;;;;82.00;66.00;;;;;7.48;95.48;101045.31;6305254;20;3662958;-42
2024/02/18 07:21:20;;;;;;;;;62.33;50.67;;;;;7.46;96.36;101044.47;6273789;20;2879571;-42
2024/02/18 07:23:50;;;;;;;;;52.00;44.00;;;;;7.95;94.20;101050.22;6304373;20;2849525;-41
2024/02/18 07:26:19;;;;;;;;;54.50;44.50;;;;;8.10;92.69;101056.00;6274731;20;2857025;-41
2024/02/18 07:28:49;;;;;;;;;62.00;48.00;;;;;7.39;97.68;101053.56;6272656;20;3642085;-40
2024/02/18 07:31:18;;;;;;;;;49.00;41.00;;;;;7.21;99.47;101058.47;6306207;20;2860752;-40
2024/02/18 07:33:46;;;;;;;;;52.00;43.00;;;;;7.42;96.00;101064.16;6273206;20;2853401;-43
2024/02/18 07:36:16;;;;;;;;;39.67;36.00;;;;;7.17;96.62;101063.94;6274207;20;2869057;-40
2024/02/18 07:38:45;;;;;;;;;40.50;34.00;;;;;6.56;99.57;101069.84;6306824;20;2863918;-40
2024/02/18 07:41:14;;;;;;;;;47.00;38.00;;;;;6.42;100.00;101068.38;6272577;20;2848277;-40
2024/02/18 07:43:44;;;;;;;;;42.00;37.00;;;;;5.91;100.00;101074.75;6272491;20;2859739;-40
2024/02/18 07:46:13;;;;;;;;;48.33;38.67;;;;;5.37;100.00;101066.88;6274304;20;2865991;-40
2024/02/18 07:48:43;;;;;;;;;55.00;45.33;;;;;5.45;100.00;101060.53;6303239;20;2868021;-40
2024/02/18 07:51:13;;;;;;;;;64.00;49.00;;;;;5.46;100.00;101059.63;6304018;20;3629470;-40
2024/02/18 07:53:42;;;;;;;;;66.33;51.33;;;;;5.31;100.00;101057.22;6303152;20;3642963;-40
2024/02/18 07:56:12;;;;;;;;;67.00;54.67;;;;;5.54;100.00;101053.28;6303910;20;2861830;-40
2024/02/18 07:58:41;;;;;;;;;53.50;42.00;;;;;6.10;100.00;101059.28;6300566;20;2857592;-40
2024/02/18 08:01:09;;;;;;;;;63.00;54.00;;;;;6.49;100.00;101059.34;6272002;20;2850318;-40
2024/02/18 08:03:38;;;;;;;;;61.00;50.50;;;;;6.63;100.00;101059.88;6273201;20;2855585;-41
2024/02/18 08:06:08;;;;;;;;;48.00;40.50;;;;;6.74;100.00;101057.84;6272658;20;2866424;-40
2024/02/18 08:08:37;;;;;;;;;47.50;38.00;;;;;7.62;100.00;101069.84;6272532;20;2852358;-40
2024/02/18 08:11:06;;;;;;;;;55.50;45.50;;;;;7.43;100.00;101063.25;6272766;20;2857576;-40
2024/02/18 08:13:35;;;;;;;;;49.33;37.00;;;;;7.29;100.00;101070.75;6268627;20;3635800;-42
2024/02/18 08:16:05;;;;;;;;;47.67;39.33;;;;;8.24;100.00;101074.34;6303549;20;2872369;-41
2024/02/18 08:18:34;;;;;;;;;46.50;38.00;;;;;8.28;100.00;101069.78;6306630;20;2854432;-41
2024/02/18 08:21:03;;;;;;;;;52.00;42.00;;;;;8.91;99.74;101073.22;6273480;20;2859177;-41
2024/02/18 08:23:32;;;;;;;;;53.00;43.00;;;;;8.25;100.00;101077.91;6275281;20;2855602;-41
2024/02/18 08:26:01;;;;;;;;;47.50;39.00;;;;;8.51;100.00;101078.03;6277358;20;2856563;-41
2024/02/18 08:28:30;;;;;;;;;46.50;39.50;;;;;8.33;100.00;101071.38;6273591;20;2853534;-42
2024/02/18 08:30:58;;;;;;;;;46.00;37.00;;;;;8.63;100.00;101067.84;6275631;20;2851341;-44
2024/02/18 08:33:27;;;;;;;;;47.00;39.00;;;;;8.83;100.00;101068.09;6274538;20;2854485;-41
2024/02/18 08:35:57;;;;;;;;;58.67;46.67;;;;;8.75;100.00;101076.38;6275340;20;2862861;-41
2024/02/18 08:38:26;;;;;;;;;48.00;37.50;;;;;8.84;100.00;101075.19;6306997;20;2850283;-42
2024/02/18 08:40:54;;;;;;;;;49.50;41.00;;;;;8.87;100.00;101077.78;6274603;20;2853508;-41
2024/02/18 08:43:23;;;;;;;;;51.50;40.50;;;;;8.97;100.00;101081.03;6273260;20;2857634;-41
2024/02/18 08:45:53;;;;;;;;;54.33;43.33;;;;;9.02;100.00;101076.41;6275063;20;2867187;-40
2024/02/18 08:48:21;;;;;;;;;50.00;41.00;;;;;9.31;100.00;101080.78;6304306;20;2845099;-41
2024/02/18 08:50:50;;;;;;;;;51.00;41.50;;;;;8.96;100.00;101085.53;6276109;20;2837838;-41
2024/02/18 08:53:21;;;;;;;;;50.67;41.67;;;;;9.64;100.00;101093.97;6271638;20;2862819;-42
2024/02/18 08:55:50;;;;;;;;;50.50;42.50;;;;;9.13;100.00;101092.13;6301030;20;2861867;-41
2024/02/18 08:58:19;;;;;;;;;48.00;41.00;;;;;9.34;100.00;101094.09;6265668;20;2849357;-40
2024/02/18 09:00:48;;;;;;;;;50.00;40.00;;;;;9.34;100.00;101083.38;6269953;20;2845079;-44
2024/02/18 09:03:17;;;;;;;;;48.50;40.00;;;;;9.44;100.00;101086.63;6268352;20;2850284;-42
2024/02/18 09:05:45;;;;;;;;;47.00;39.50;;;;;9.25;100.00;101090.88;6269403;20;2855528;-41
2024/02/18 09:08:14;;;;;;;;;52.50;42.50;;;;;9.78;100.00;101090.81;6270910;20;2865007;-42
2024/02/18 09:10:44;;;;;;;;;48.00;39.00;;;;;9.78;100.00;101094.34;6267111;20;3627449;-45
2024/02/18 09:13:14;;;;;;;;;52.50;41.50;;;;;10.63;99.34;101096.59;6298341;20;2862795;-42
2024/02/18 09:15:43;;;;;;;;;49.67;41.00;;;;;10.51;95.20;101095.28;6269526;20;2859680;-42
2024/02/18 09:18:14;;;;;;;;;49.33;42.67;;;;;11.32;94.06;101099.16;6298687;20;2863822;-42
2024/02/18 09:20:44;;;;;;;;;49.00;40.33;;;;;11.15;92.09;101099.88;6297638;20;2860760;-43
2024/02/18 09:23:12;;;;;;;;;48.00;39.67;;;;;10.86;95.15;101096.56;6305577;20;3592194;-44
2024/02/18 09:25:40;;;;;;;;;44.50;37.00;;;;;11.28;88.80;101101.13;6261736;20;2492033;-43
2024/02/18 09:28:10;;;;;;;;;40.00;34.33;;;;;10.25;92.17;101096.25;6273408;20;2873095;-44
2024/02/18 09:30:39;;;;;;;;;48.00;40.00;;;;;10.59;93.52;101101.22;6305357;20;2856652;-42
2024/02/18 09:33:08;;;;;;;;;46.50;37.50;;;;;10.86;93.99;101106.44;6271612;20;2858633;-44
2024/02/18 09:35:36;;;;;;;;;43.00;35.50;;;;;11.03;92.10;101103.94;6275420;20;2850271;-43
2024/02/18 09:38:09;;;;;;;;;47.50;39.00;;;;;10.71;92.96;101111.47;6278080;20;2841953;-43
2024/02/18 09:40:39;;;;;;;;;56.33;46.00;;;;;10.49;94.03;101108.75;6277134;20;3627865;-43
2024/02/18 09:43:10;;;;;;;;;59.33;45.33;;;;;10.57;95.38;101107.59;6303045;20;3639828;-43
2024/02/18 09:45:41;;;;;;;;;42.33;35.00;;;;;10.36;96.91;101109.28;6308229;20;3586736;-43
2024/02/18 09:48:14;;;;;;;;;39.50;35.00;;;;;10.61;97.46;101110.09;6304473;20;2494057;-42
2024/02/18 09:50:43;;;;;;;;;44.67;36.33;;;;;10.44;94.76;101116.09;6276963;20;3592970;-43
2024/02/18 09:53:13;;;;;;;;;44.50;36.00;;;;;10.62;93.01;101116.34;6272532;20;2866014;-44
2024/02/18 09:55:44;;;;;;;;;44.67;37.33;;;;;10.05;96.15;101121.13;6277163;20;2847338;-43
2024/02/18 09:58:14;;;;;;;;;44.33;36.00;;;;;9.76;96.77;101117.66;6306337;20;2861814;-42
2024/02/18 10:00:43;;;;;;;;;52.00;42.00;;;;;9.94;99.51;101120.63;6310967;20;2858664;-42
2024/02/18 10:03:14;;;;;;;;;50.00;40.50;;;;;10.04;99.08;101119.38;6277752;20;2854534;-43
2024/02/18 10:05:43;;;;;;;;;52.00;41.00;;;;;10.10;100.00;101113.78;6274553;20;2844140;-42
2024/02/18 10:08:13;;;;;;;;;54.33;41.67;;;;;9.60;100.00;101113.78;6280073;20;3612751;-42
2024/02/18 10:10:42;;;;;;;;;51.33;44.00;;;;;9.70;100.00;101111.66;6310682;20;2866980;-41
2024/02/18 10:13:12;;;;;;;;;52.67;43.67;;;;;9.62;100.00;101112.78;6309456;20;3615912;-40
2024/02/18 10:15:41;;;;;;;;;51.50;43.00;;;;;9.70;100.00;101108.97;6308030;20;2865965;-41
2024/02/18 10:18:13;;;;;;;;;55.33;46.00;;;;;9.54;100.00;101108.63;6278452;20;3619119;-41
2024/02/18 10:20:44;;;;;;;;;52.00;43.67;;;;;9.86;100.00;101111.06;6310933;20;3605505;-41
2024/02/18 10:23:13;;;;;;;;;59.33;46.67;;;;;9.31;100.00;101109.41;6309959;20;3629628;-41
2024/02/18 10:25:47;;;;;;;;;55.67;45.33;;;;;9.28;100.00;101113.06;6302932;20;2858937;-40
2024/02/18 10:28:17;;;;;;;;;56.00;44.00;;;;;9.08;100.00;101111.03;6306393;20;2875405;-44
2024/02/18 10:30:47;;;;;;;;;55.00;46.00;;;;;9.49;100.00;101110.59;6308347;20;2876424;-41
2024/02/18 10:33:17;;;;;;;;;56.67;46.33;;;;;9.14;100.00;101104.63;6309684;20;3627332;-42
2024/02/18 10:35:52;;;;;;;;;55.00;44.67;;;;;9.39;100.00;101105.53;6308190;20;2865005;-41
2024/02/18 10:38:24;;;;;;;;;54.00;43.33;;;;;9.30;100.00;101110.34;6307199;20;2859766;-42
2024/02/18 10:41:03;;;;;;;;;58.33;46.00;;;;;8.95;100.00;101110.56;6307895;20;3624241;-42
2024/02/18 10:43:45;;;;;;;;;65.00;50.00;;;;;9.27;100.00;101097.91;6306573;20;3630563;-41
2024/02/18 10:46:20;;;;;;;;;55.50;44.50;;;;;9.30;100.00;101100.50;6306567;20;2861240;-42
2024/02/18 10:49:01;;;;;;;;;57.50;46.50;;;;;9.34;100.00;101102.13;6309519;20;2869050;-42
2024/02/18 10:51:42;;;;;;;;;59.33;47.67;;;;;9.28;100.00;101099.66;6276863;20;2859798;-42
2024/02/18 10:54:51;;;;;;;;;64.67;50.67;;;;;9.09;100.00;101096.72;6306609;20;3633611;-42
2024/02/18 10:57:27;;;;;;;;;53.67;44.00;;;;;9.81;100.00;101091.56;6307276;20;2859690;-41
2024/02/18 11:00:12;;;;;;;;;55.00;44.00;;;;;9.96;100.00;101090.13;6306812;20;2872285;-41
2024/02/18 11:03:11;;;;;;;;;51.00;42.00;;;;;10.14;99.79;101090.38;6307707;20;2853454;-44
2024/02/18 11:05:40;;;;;;;;;49.00;41.50;;;;;10.15;98.58;101084.97;6274729;20;2853528;-42
2024/02/18 11:08:11;;;;;;;;;50.50;42.00;;;;;10.36;98.22;101087.81;6274650;20;2848219;-42